createdAt,value
2023-04-23T00:02:02.957Z,4.70
2023-04-23T00:04:36.486Z,4.17
2023-04-23T00:07:04.167Z,4.47
2023-04-23T00:09:32.561Z,3.90
2023-04-23T00:12:01.836Z,4.80
2023-04-23T00:14:28.811Z,3.77
2023-04-23T00:16:55.940Z,3.30
2023-04-23T00:19:22.633Z,4.50
2023-04-23T00:21:49.419Z,3.87
2023-04-23T00:24:16.141Z,3.53
2023-04-23T00:26:42.846Z,4.20
2023-04-23T00:29:09.727Z,3.93
2023-04-23T00:31:36.421Z,4.00
2023-04-23T00:34:03.367Z,4.80
2023-04-23T00:36:30.725Z,4.30
2023-04-23T00:38:57.473Z,4.53
2023-04-23T00:41:24.689Z,4.60
2023-04-23T00:43:53.078Z,4.30
2023-04-23T00:46:20.214Z,4.57
2023-04-23T00:48:47.625Z,4.67
2023-04-23T00:51:16.793Z,5.20
2023-04-23T00:53:43.404Z,4.57
2023-04-23T00:56:10.739Z,4.93
2023-04-23T00:58:38.150Z,5.40
2023-04-23T01:01:04.969Z,4.53
2023-04-23T01:03:36.294Z,5.00
2023-04-23T01:06:03.996Z,5.10
2023-04-23T01:08:32.112Z,5.53
2023-04-23T01:10:59.944Z,5.33
2023-04-23T01:13:29.530Z,4.60
2023-04-23T01:15:57.265Z,5.03
2023-04-23T01:18:24.665Z,5.37
2023-04-23T01:20:51.629Z,5.40
2023-04-23T01:23:18.566Z,5.10
2023-04-23T01:25:46.309Z,5.63
2023-04-23T01:28:13.812Z,5.47
2023-04-23T01:30:43.397Z,6.10
2023-04-23T01:33:11.297Z,5.27
2023-04-23T01:35:39.249Z,5.40
2023-04-23T01:38:09.420Z,5.87
2023-04-23T01:40:36.587Z,5.30
2023-04-23T01:43:04.495Z,5.63
2023-04-23T01:45:31.866Z,5.20
2023-04-23T01:48:00.430Z,5.70
2023-04-23T01:50:29.107Z,4.67
2023-04-23T01:52:55.966Z,5.00
2023-04-23T01:55:23.680Z,5.03
2023-04-23T01:57:51.556Z,5.17
2023-04-23T02:00:18.740Z,5.40
2023-04-23T02:02:45.574Z,5.07
2023-04-23T02:05:16.422Z,5.30
2023-04-23T02:07:44.372Z,4.50
2023-04-23T02:10:11.515Z,6.33
2023-04-23T02:12:38.857Z,4.90
2023-04-23T02:15:07.308Z,4.47
2023-04-23T02:17:34.214Z,4.13
2023-04-23T02:20:01.333Z,4.80
2023-04-23T02:22:28.590Z,4.37
2023-04-23T02:24:55.323Z,5.17
2023-04-23T02:27:22.157Z,5.00
2023-04-23T02:29:49.011Z,4.67
2023-04-23T02:32:15.819Z,4.50
2023-04-23T02:34:43.086Z,5.10
2023-04-23T02:37:10.299Z,5.13
2023-04-23T02:39:39.026Z,5.00
2023-04-23T02:42:06.347Z,4.73
2023-04-23T02:44:33.223Z,5.13
2023-04-23T02:47:00.569Z,4.50
2023-04-23T02:49:27.310Z,4.80
2023-04-23T02:51:54.108Z,4.97
2023-04-23T02:54:20.794Z,4.53
2023-04-23T02:56:47.759Z,4.47
2023-04-23T02:59:14.470Z,4.50
2023-04-23T03:01:41.395Z,4.07
2023-04-23T03:04:09.921Z,4.30
2023-04-23T03:06:37.342Z,3.90
2023-04-23T03:09:04.902Z,4.17
2023-04-23T03:11:31.710Z,3.80
2023-04-23T03:13:58.441Z,3.83
2023-04-23T03:16:26.911Z,4.00
2023-04-23T03:18:53.736Z,4.57
2023-04-23T03:21:20.554Z,4.30
2023-04-23T03:23:47.276Z,4.90
2023-04-23T03:26:14.011Z,5.17
2023-04-23T03:28:40.644Z,4.87
2023-04-23T03:31:07.380Z,5.37
2023-04-23T03:33:34.147Z,5.30
2023-04-23T03:36:00.805Z,5.13
2023-04-23T03:38:30.692Z,4.90
2023-04-23T03:40:58.745Z,5.23
2023-04-23T03:43:25.651Z,5.17
2023-04-23T03:46:12.273Z,5.70
2023-04-23T03:48:41.612Z,5.87
2023-04-23T03:51:18.032Z,6.20
2023-04-23T03:53:48.988Z,5.97
2023-04-23T03:56:44.756Z,7.23
2023-04-23T03:59:11.975Z,7.47
2023-04-23T04:01:38.722Z,8.20
2023-04-23T04:04:05.612Z,8.20
2023-04-23T04:06:33.199Z,9.27
2023-04-23T04:08:59.819Z,9.90
2023-04-23T04:11:26.786Z,10.00
2023-04-23T04:13:53.426Z,9.50
2023-04-23T04:16:20.161Z,10.10
2023-04-23T04:18:46.832Z,9.53
2023-04-23T04:21:13.598Z,9.07
2023-04-23T04:23:40.223Z,9.53
2023-04-23T04:26:08.171Z,9.97
2023-04-23T04:28:37.252Z,10.07
2023-04-23T04:31:05.564Z,10.20
2023-04-23T04:33:35.579Z,9.67
2023-04-23T04:36:02.283Z,10.47
2023-04-23T04:38:29.802Z,10.23
2023-04-23T04:41:00.217Z,9.40
2023-04-23T04:43:27.080Z,9.47
2023-04-23T04:45:53.819Z,9.97
2023-04-23T04:48:20.724Z,10.07
2023-04-23T04:50:47.947Z,9.40
2023-04-23T04:53:14.657Z,8.97
2023-04-23T04:55:41.564Z,8.47
2023-04-23T04:58:08.219Z,9.30
2023-04-23T05:00:34.885Z,9.07
2023-04-23T05:03:01.854Z,8.80
2023-04-23T05:05:28.548Z,10.07
2023-04-23T05:07:55.275Z,9.17
2023-04-23T05:10:21.895Z,8.80
2023-04-23T05:12:48.613Z,9.90
2023-04-23T05:15:15.475Z,9.43
2023-04-23T05:17:42.772Z,9.90
2023-04-23T05:20:10.922Z,8.90
2023-04-23T05:22:42.130Z,8.90
2023-04-23T05:25:10.498Z,8.93
2023-04-23T05:27:37.390Z,8.37
2023-04-23T05:30:06.185Z,9.10
2023-04-23T05:32:33.526Z,8.90
2023-04-23T05:35:02.714Z,8.00
2023-04-23T05:37:31.100Z,7.93
2023-04-23T05:40:00.714Z,6.90
2023-04-23T05:42:27.441Z,7.30
2023-04-23T05:44:54.401Z,6.67
2023-04-23T05:47:21.594Z,7.77
2023-04-23T05:49:48.237Z,7.50
2023-04-23T05:52:15.403Z,7.47
2023-04-23T05:54:42.502Z,7.30
2023-04-23T05:57:09.546Z,7.17
2023-04-23T05:59:36.175Z,7.20
2023-04-23T06:02:03.003Z,7.03
2023-04-23T06:04:29.890Z,6.53
2023-04-23T06:06:56.759Z,7.03
2023-04-23T06:09:23.509Z,7.43
2023-04-23T06:11:52.295Z,6.63
2023-04-23T06:14:18.973Z,6.63
2023-04-23T06:16:45.653Z,7.10
2023-04-23T06:19:12.832Z,6.93
2023-04-23T06:21:39.600Z,6.30
2023-04-23T06:24:08.026Z,6.50
2023-04-23T06:26:35.047Z,6.20
2023-04-23T06:29:09.975Z,5.70
2023-04-23T06:32:02.560Z,5.40
2023-04-23T06:34:29.286Z,5.97
2023-04-23T06:36:57.026Z,6.50
2023-04-23T06:39:23.732Z,5.00
2023-04-23T06:41:50.631Z,8.10
2023-04-23T06:44:34.328Z,6.53
2023-04-23T06:47:02.012Z,5.97
2023-04-23T06:49:28.652Z,6.03
2023-04-23T06:51:57.550Z,6.10
2023-04-23T06:54:24.487Z,5.70
2023-04-23T06:56:51.150Z,5.50
2023-04-23T06:59:17.841Z,5.37
2023-04-23T07:01:47.486Z,6.03
2023-04-23T07:04:14.273Z,5.30
2023-04-23T07:06:40.908Z,5.90
2023-04-23T07:09:07.529Z,5.60
2023-04-23T07:11:36.509Z,5.60
2023-04-23T07:14:03.901Z,5.00
2023-04-23T07:16:33.477Z,6.20
2023-04-23T07:19:02.235Z,5.23
2023-04-23T07:21:29.229Z,5.47
2023-04-23T07:23:57.480Z,6.53
2023-04-23T07:26:25.361Z,4.93
2023-04-23T07:28:52.874Z,5.07
2023-04-23T07:31:20.639Z,5.27
2023-04-23T07:33:47.835Z,4.77
2023-04-23T07:36:14.491Z,4.67
2023-04-23T07:38:41.244Z,4.30
2023-04-23T07:41:08.111Z,4.67
2023-04-23T07:43:34.850Z,4.07
2023-04-23T07:46:01.850Z,4.33
2023-04-23T07:48:28.606Z,4.10
2023-04-23T07:50:55.626Z,3.80
2023-04-23T07:53:22.673Z,3.60
2023-04-23T07:55:49.360Z,3.70
2023-04-23T07:58:16.048Z,3.80
2023-04-23T08:00:42.764Z,3.37
2023-04-23T08:03:09.483Z,3.13
2023-04-23T08:05:38.415Z,3.30
2023-04-23T08:08:05.150Z,3.03
2023-04-23T08:10:32.093Z,3.60
2023-04-23T08:12:58.767Z,3.30
2023-04-23T08:15:25.423Z,3.30
2023-04-23T08:17:52.140Z,3.20
2023-04-23T08:20:19.209Z,3.20
2023-04-23T08:22:45.975Z,3.70
2023-04-23T08:25:13.248Z,3.57
2023-04-23T08:27:39.890Z,5.77
2023-04-23T08:30:08.288Z,7.23
2023-04-23T08:32:35.154Z,5.70
2023-04-23T08:35:01.873Z,9.20
2023-04-23T08:37:31.345Z,8.30
2023-04-23T08:39:58.413Z,12.63
2023-04-23T08:42:57.275Z,8.10
2023-04-23T08:45:24.751Z,12.20
2023-04-23T08:47:51.538Z,5.30
2023-04-23T08:50:20.026Z,5.07
2023-04-23T08:52:55.445Z,5.30
2023-04-23T08:55:23.184Z,6.37
2023-04-23T08:57:50.476Z,11.87
2023-04-23T09:00:19.597Z,6.20
2023-04-23T09:02:48.380Z,4.70
2023-04-23T09:05:16.921Z,4.77
2023-04-23T09:07:44.365Z,4.80
2023-04-23T09:10:13.387Z,6.60
2023-04-23T09:12:43.738Z,3.97
2023-04-23T09:15:11.860Z,6.73
2023-04-23T09:17:41.028Z,3.00
2023-04-23T09:20:11.470Z,3.10
2023-04-23T09:22:47.900Z,3.40
2023-04-23T09:25:20.628Z,3.20
2023-04-23T09:27:49.009Z,2.57
2023-04-23T09:30:17.089Z,3.43
2023-04-23T09:32:49.441Z,3.20
2023-04-23T09:35:19.798Z,2.07
2023-04-23T09:37:49.630Z,2.47
2023-04-23T09:40:20.264Z,2.27
2023-04-23T09:42:49.597Z,2.20
2023-04-23T09:45:16.938Z,2.30
2023-04-23T09:47:51.778Z,1.90
2023-04-23T09:50:35.860Z,1.77
2023-04-23T09:53:03.380Z,1.73
2023-04-23T09:55:40.685Z,1.93
2023-04-23T09:58:15.707Z,2.00
2023-04-23T10:00:43.082Z,2.47
2023-04-23T10:03:10.982Z,2.17
2023-04-23T10:08:14.424Z,1.90
2023-04-23T10:10:55.177Z,1.90
2023-04-23T10:13:27.374Z,1.80
2023-04-23T10:15:55.023Z,2.27
2023-04-23T10:18:21.979Z,1.80
2023-04-23T10:20:49.985Z,2.10
2023-04-23T10:23:19.313Z,1.80
2023-04-23T10:25:47.699Z,2.10
2023-04-23T10:28:21.825Z,1.50
2023-04-23T10:30:49.668Z,1.80
2023-04-23T10:33:29.019Z,1.80
2023-04-23T10:35:57.872Z,1.90
2023-04-23T10:38:28.286Z,1.80
2023-04-23T10:40:58.636Z,1.80
2023-04-23T10:43:25.789Z,1.80
2023-04-23T10:45:53.692Z,1.57
2023-04-23T10:48:20.993Z,1.40
2023-04-23T10:51:09.754Z,1.50
2023-04-23T10:53:45.896Z,1.30
2023-04-23T10:56:12.665Z,1.13
2023-04-23T10:58:50.577Z,1.40
2023-04-23T11:01:21.894Z,1.43
2023-04-23T11:03:48.833Z,1.40
2023-04-23T11:06:39.498Z,1.17
2023-04-23T11:09:28.793Z,1.23
2023-04-23T11:11:55.680Z,1.30
2023-04-23T11:14:34.833Z,1.25
2023-04-23T11:17:02.859Z,1.00
2023-04-23T11:19:30.199Z,1.00
2023-04-23T11:21:58.446Z,0.77
2023-04-23T11:24:42.790Z,0.95
2023-04-23T11:27:19.731Z,0.90
2023-04-23T11:29:49.755Z,1.10
2023-04-23T11:32:17.442Z,1.10
2023-04-23T11:34:45.563Z,1.00
2023-04-23T11:37:17.530Z,1.00
2023-04-23T11:39:45.928Z,1.10
2023-04-23T11:42:14.468Z,1.08
2023-04-23T11:44:42.859Z,1.00
2023-04-23T11:47:14.328Z,1.00
2023-04-23T11:49:44.047Z,0.80
2023-04-23T11:52:11.906Z,1.17
2023-04-23T11:54:41.717Z,1.30
2023-04-23T11:57:08.757Z,1.10
2023-04-23T11:59:35.626Z,0.90
2023-04-23T12:02:02.271Z,1.00
2023-04-23T12:04:30.562Z,0.98
2023-04-23T12:06:58.869Z,1.05
2023-04-23T12:09:28.200Z,1.10
2023-04-23T12:11:56.801Z,1.00
2023-04-23T12:14:30.846Z,0.90
2023-04-23T12:16:59.041Z,0.80
2023-04-23T12:19:31.073Z,0.70
2023-04-23T12:22:02.398Z,0.90
2023-04-23T12:24:46.550Z,0.70
2023-04-23T12:27:20.310Z,0.98
2023-04-23T12:29:47.932Z,0.80
2023-04-23T12:32:15.545Z,0.93
2023-04-23T12:34:55.590Z,0.88
2023-04-23T12:37:30.472Z,0.90
2023-04-23T12:39:59.647Z,0.70
2023-04-23T12:42:26.538Z,0.90
2023-04-23T12:44:55.606Z,0.80
2023-04-23T12:47:22.670Z,0.70
2023-04-23T12:49:53.083Z,1.00
2023-04-23T12:52:20.743Z,0.93
2023-04-23T12:54:51.700Z,1.00
2023-04-23T12:57:22.113Z,0.90
2023-04-23T12:59:49.279Z,0.80
2023-04-23T13:02:16.051Z,0.80
2023-04-23T13:04:42.746Z,0.80
2023-04-23T13:07:10.019Z,0.80
2023-04-23T13:09:36.689Z,0.80
2023-04-23T13:12:03.467Z,0.70
2023-04-23T13:14:32.050Z,0.70
2023-04-23T13:16:58.669Z,0.70
2023-04-23T13:19:25.512Z,0.93
2023-04-23T13:21:52.202Z,0.80
2023-04-23T13:24:18.836Z,0.70
2023-04-23T13:26:45.449Z,0.70
2023-04-23T13:29:12.195Z,0.70
2023-04-23T13:31:38.910Z,0.70
2023-04-23T13:34:05.583Z,0.80
2023-04-23T13:36:32.239Z,0.80
2023-04-23T13:38:58.842Z,0.70
2023-04-23T13:41:25.538Z,0.70
2023-04-23T13:43:52.608Z,0.63
2023-04-23T13:46:19.710Z,0.73
2023-04-23T13:48:46.584Z,0.70
2023-04-23T13:51:26.460Z,0.73
2023-04-23T13:53:59.640Z,0.60
2023-04-23T13:56:30.399Z,0.80
2023-04-23T13:59:18.066Z,0.73
2023-04-23T14:01:48.336Z,0.63
2023-04-23T14:04:15.470Z,0.80
2023-04-23T14:06:42.659Z,0.87
2023-04-23T14:09:10.001Z,0.77
2023-04-23T14:11:37.364Z,0.60
2023-04-23T14:14:04.378Z,0.70
2023-04-23T14:16:31.040Z,0.80
2023-04-23T14:18:58.483Z,0.70
2023-04-23T14:21:25.190Z,2.33
2023-04-23T14:24:01.947Z,0.50
2023-04-23T14:26:41.218Z,2.80
2023-04-23T14:29:40.967Z,2.07
2023-04-23T14:32:08.077Z,1.43
2023-04-23T14:34:37.319Z,1.30
2023-04-23T14:37:04.465Z,1.87
2023-04-23T14:39:31.433Z,12.83
2023-04-23T14:41:58.155Z,0.70
2023-04-23T14:44:26.839Z,0.70
2023-04-23T14:46:53.499Z,1.20
2023-04-23T14:49:23.087Z,0.60
2023-04-23T14:51:54.102Z,0.50
2023-04-23T14:54:21.626Z,0.80
2023-04-23T14:56:48.448Z,0.53
2023-04-23T14:59:15.161Z,0.60
2023-04-23T15:01:41.940Z,1.80
2023-04-23T15:04:10.720Z,0.70
2023-04-23T15:06:38.310Z,0.80
2023-04-23T15:09:05.110Z,0.50
2023-04-23T15:11:32.348Z,0.70
2023-04-23T15:14:06.332Z,0.90
2023-04-23T15:19:10.214Z,0.70
2023-04-23T15:21:37.454Z,0.90
2023-04-23T15:24:04.408Z,1.17
2023-04-23T15:26:33.514Z,1.43
2023-04-23T15:29:00.535Z,1.10
2023-04-23T15:31:27.355Z,1.50
2023-04-23T15:33:54.021Z,1.20
2023-04-23T15:36:20.691Z,1.60
2023-04-23T15:38:47.354Z,1.47
2023-04-23T15:41:14.131Z,1.20
2023-04-23T15:43:40.860Z,1.40
2023-04-23T15:46:07.561Z,1.10
2023-04-23T15:48:34.173Z,0.87
2023-04-23T15:51:01.030Z,1.07
2023-04-23T15:53:28.263Z,1.27
2023-04-23T15:55:54.883Z,1.10
2023-04-23T15:58:21.506Z,1.17
2023-04-23T16:00:48.229Z,1.43
2023-04-23T16:03:15.675Z,2.03
2023-04-23T16:05:43.116Z,1.80
2023-04-23T16:08:09.920Z,1.90
2023-04-23T16:10:38.043Z,1.20
2023-04-23T16:13:06.030Z,3.00
2023-04-23T16:15:32.813Z,1.47
2023-04-23T16:18:00.197Z,0.80
2023-04-23T16:20:28.282Z,1.20
2023-04-23T16:22:55.192Z,1.30
2023-04-23T16:25:21.939Z,1.30
2023-04-23T16:27:49.000Z,1.47
2023-04-23T16:30:16.412Z,1.00
2023-04-23T16:32:43.215Z,0.97
2023-04-23T16:35:10.302Z,1.00
2023-04-23T16:37:37.046Z,1.17
2023-04-23T16:40:04.529Z,0.83
2023-04-23T16:42:31.500Z,0.87
2023-04-23T16:44:58.258Z,0.90
2023-04-23T16:47:25.157Z,0.80
2023-04-23T16:49:52.848Z,1.03
2023-04-23T16:52:19.691Z,1.00
2023-04-23T16:54:49.258Z,1.10
2023-04-23T16:57:16.913Z,0.90
2023-04-23T16:59:43.625Z,1.10
2023-04-23T17:02:10.375Z,1.00
2023-04-23T17:04:37.527Z,1.03
2023-04-23T17:07:04.380Z,1.20
2023-04-23T17:09:31.753Z,0.77
2023-04-23T17:11:59.166Z,0.60
2023-04-23T17:14:26.481Z,0.40
2023-04-23T17:16:53.116Z,0.50
2023-04-23T17:19:19.818Z,0.60
2023-04-23T17:21:46.528Z,0.70
2023-04-23T17:24:13.217Z,0.87
2023-04-23T17:26:40.008Z,0.90
2023-04-23T17:29:06.976Z,0.70
2023-04-23T17:31:35.853Z,0.87
2023-04-23T17:34:03.477Z,0.80
2023-04-23T17:36:30.122Z,1.00
2023-04-23T17:38:56.894Z,1.20
2023-04-23T17:41:23.828Z,1.00
2023-04-23T17:43:50.536Z,0.97
2023-04-23T17:46:17.334Z,1.00
2023-04-23T17:48:44.844Z,0.90
2023-04-23T17:51:11.572Z,0.87
2023-04-23T17:53:38.349Z,0.80
2023-04-23T17:56:05.435Z,1.50
2023-04-23T17:58:32.106Z,5.10
2023-04-23T18:00:58.970Z,2.03
2023-04-23T18:03:26.552Z,6.73
2023-04-23T18:05:53.965Z,1.57
2023-04-23T18:08:21.226Z,0.90
2023-04-23T18:10:47.956Z,0.90
2023-04-23T18:13:14.932Z,0.83
2023-04-23T18:15:42.254Z,0.90
2023-04-23T18:18:09.158Z,1.03
2023-04-23T18:20:38.522Z,0.80
2023-04-23T18:23:06.428Z,0.90
2023-04-23T18:25:33.154Z,1.37
2023-04-23T18:28:00.096Z,0.87
2023-04-23T18:30:26.877Z,0.90
2023-04-23T18:33:08.477Z,0.90
2023-04-23T18:35:42.589Z,0.87
2023-04-23T18:38:24.324Z,1.43
2023-04-23T18:40:51.388Z,1.20
2023-04-23T18:43:18.677Z,0.80
2023-04-23T18:45:45.351Z,0.93
2023-04-23T18:48:44.934Z,1.10
2023-04-23T18:51:18.818Z,1.17
2023-04-23T18:53:46.214Z,1.00
2023-04-23T18:56:12.830Z,1.50
2023-04-23T18:58:39.479Z,1.27
2023-04-23T19:01:06.252Z,1.20
2023-04-23T19:03:33.150Z,1.30
2023-04-23T19:05:59.896Z,0.93
2023-04-23T19:08:28.772Z,1.00
2023-04-23T19:10:57.269Z,1.20
2023-04-23T19:13:24.362Z,1.67
2023-04-23T19:15:51.472Z,1.63
2023-04-23T19:18:18.753Z,1.00
2023-04-23T19:20:45.580Z,1.30
2023-04-23T19:23:12.318Z,1.07
2023-04-23T19:25:39.292Z,0.90
2023-04-23T19:28:06.029Z,1.10
2023-04-23T19:30:32.738Z,1.37
2023-04-23T19:32:59.556Z,1.73
2023-04-23T19:35:26.520Z,1.70
2023-04-23T19:37:53.571Z,1.20
2023-04-23T19:40:20.347Z,1.63
2023-04-23T19:42:47.104Z,1.53
2023-04-23T19:45:16.472Z,1.20
2023-04-23T19:47:43.281Z,1.30
2023-04-23T19:50:10.509Z,1.37
2023-04-23T19:52:37.187Z,1.00
2023-04-23T19:55:04.300Z,1.20
2023-04-23T19:57:31.047Z,1.27
2023-04-23T19:59:57.862Z,1.17
2023-04-23T20:02:24.881Z,1.17
2023-04-23T20:04:51.811Z,1.00
2023-04-23T20:07:18.723Z,1.00
2023-04-23T20:09:45.581Z,1.03
2023-04-23T20:12:13.830Z,0.90
2023-04-23T20:14:40.468Z,0.80
2023-04-23T20:17:07.906Z,0.93
2023-04-23T20:19:34.803Z,1.13
2023-04-23T20:22:02.475Z,1.10
2023-04-23T20:24:29.224Z,6.20
2023-04-23T20:26:56.540Z,1.10
2023-04-23T20:29:23.239Z,8.43
2023-04-23T20:31:50.018Z,7.00
2023-04-23T20:34:16.895Z,7.03
2023-04-23T20:36:46.894Z,2.47
2023-04-23T20:39:13.848Z,1.80
2023-04-23T20:41:40.839Z,2.17
2023-04-23T20:44:07.513Z,1.20
2023-04-23T20:46:36.547Z,1.20
2023-04-23T20:49:03.822Z,2.10
2023-04-23T20:51:34.546Z,1.00
2023-04-23T20:54:02.299Z,1.40
2023-04-23T20:56:29.844Z,1.30
2023-04-23T20:58:59.944Z,1.73
2023-04-23T21:01:26.972Z,1.27
2023-04-23T21:03:54.096Z,1.37
2023-04-23T21:06:21.698Z,1.70
2023-04-23T21:08:48.868Z,1.53
2023-04-23T21:11:18.154Z,1.40
2023-04-23T21:13:45.944Z,1.80
2023-04-23T21:16:13.326Z,1.50
2023-04-23T21:18:40.368Z,1.50
2023-04-23T21:21:07.867Z,1.50
2023-04-23T21:23:34.719Z,1.47
2023-04-23T21:26:01.776Z,1.67
2023-04-23T21:28:28.407Z,2.03
2023-04-23T21:30:56.880Z,1.30
2023-04-23T21:33:25.322Z,1.50
2023-04-23T21:35:53.498Z,1.50
2023-04-23T21:38:21.298Z,1.40
2023-04-23T21:40:48.121Z,1.37
2023-04-23T21:43:14.882Z,1.00
2023-04-23T21:45:41.631Z,1.00
2023-04-23T21:48:08.559Z,1.10
2023-04-23T21:50:36.022Z,1.10
2023-04-23T21:53:03.886Z,1.00
2023-04-23T21:55:31.680Z,0.80
2023-04-23T21:58:13.344Z,0.90
2023-04-23T22:00:44.620Z,1.10
2023-04-23T22:03:12.412Z,0.90
2023-04-23T22:05:40.811Z,0.73
2023-04-23T22:08:07.542Z,0.70
2023-04-23T22:10:34.369Z,0.90
2023-04-23T22:13:01.272Z,0.87
2023-04-23T22:15:29.241Z,0.67
2023-04-23T22:17:59.119Z,0.73
2023-04-23T22:20:25.928Z,0.97
2023-04-23T22:22:52.747Z,0.73
2023-04-23T22:25:19.490Z,0.73
2023-04-23T22:27:46.179Z,0.90
2023-04-23T22:30:13.268Z,0.73
2023-04-23T22:32:40.864Z,0.87
2023-04-23T22:35:08.284Z,0.87
2023-04-23T22:37:35.678Z,0.80
2023-04-23T22:40:04.096Z,0.73
2023-04-23T22:42:31.039Z,0.70
2023-04-23T22:44:57.845Z,0.97
2023-04-23T22:47:24.948Z,0.90
2023-04-23T22:49:51.621Z,0.87
2023-04-23T22:52:18.350Z,0.80
2023-04-23T22:54:45.136Z,0.93
2023-04-23T22:57:12.037Z,0.90
2023-04-23T22:59:40.186Z,1.07
2023-04-23T23:02:07.503Z,0.70
2023-04-23T23:04:37.742Z,1.00
2023-04-23T23:07:08.375Z,1.03
2023-04-23T23:09:35.123Z,1.07
2023-04-23T23:12:03.253Z,0.97
2023-04-23T23:14:30.578Z,0.80
2023-04-23T23:16:57.485Z,1.00
2023-04-23T23:19:24.866Z,0.70
2023-04-23T23:21:51.733Z,0.97
2023-04-23T23:24:19.114Z,0.73
2023-04-23T23:26:46.555Z,0.80
2023-04-23T23:29:13.331Z,1.07
2023-04-23T23:31:40.258Z,0.90
2023-04-23T23:34:06.943Z,0.80
2023-04-23T23:36:34.131Z,0.70
2023-04-23T23:39:01.165Z,0.90
2023-04-23T23:41:27.840Z,1.07
2023-04-23T23:43:54.708Z,0.93
2023-04-23T23:46:22.583Z,0.90
2023-04-23T23:48:49.563Z,0.90
2023-04-23T23:51:16.368Z,0.83
2023-04-23T23:53:43.199Z,1.10
2023-04-23T23:56:09.874Z,0.90
2023-04-23T23:58:36.616Z,0.60
